createdAt,value
2023-03-18T00:00:28.534Z,99.90
2023-03-18T00:02:55.371Z,99.90
2023-03-18T00:05:22.199Z,99.90
2023-03-18T00:07:50.250Z,99.90
2023-03-18T00:10:17.387Z,99.90
2023-03-18T00:12:44.958Z,99.90
2023-03-18T00:15:13.804Z,99.90
2023-03-18T00:17:41.184Z,99.90
2023-03-18T00:20:10.002Z,99.90
2023-03-18T00:22:38.063Z,99.90
2023-03-18T00:25:07.623Z,99.90
2023-03-18T00:27:35.800Z,99.90
2023-03-18T00:30:05.165Z,99.90
2023-03-18T00:32:32.765Z,99.90
2023-03-18T00:34:59.495Z,99.90
2023-03-18T00:37:33.621Z,99.90
2023-03-18T00:40:09.082Z,99.90
2023-03-18T00:42:49.761Z,99.90
2023-03-18T00:45:26.242Z,99.90
2023-03-18T00:47:57.544Z,99.90
2023-03-18T00:50:28.625Z,99.90
2023-03-18T00:53:00.629Z,99.90
2023-03-18T00:55:28.914Z,99.90
2023-03-18T00:57:58.656Z,99.90
2023-03-18T01:00:26.773Z,99.90
2023-03-18T01:02:58.537Z,99.90
2023-03-18T01:05:28.763Z,99.90
2023-03-18T01:08:00.289Z,99.90
2023-03-18T01:10:36.357Z,99.90
2023-03-18T01:13:07.180Z,99.90
2023-03-18T01:15:41.712Z,99.90
2023-03-18T01:18:17.255Z,99.90
2023-03-18T01:20:47.702Z,99.90
2023-03-18T01:23:19.332Z,99.90
2023-03-18T01:25:51.859Z,99.90
2023-03-18T01:28:23.005Z,99.90
2023-03-18T01:30:57.175Z,99.90
2023-03-18T01:33:42.170Z,99.90
2023-03-18T01:36:10.739Z,99.90
2023-03-18T01:38:38.533Z,99.90
2023-03-18T01:41:05.486Z,99.90
2023-03-18T01:43:35.899Z,99.90
2023-03-18T01:46:32.572Z,99.90
2023-03-18T01:49:00.698Z,99.90
2023-03-18T01:51:29.250Z,99.90
2023-03-18T01:53:59.358Z,99.90
2023-03-18T01:56:27.026Z,99.90
2023-03-18T01:58:57.479Z,99.90
2023-03-18T02:01:37.811Z,99.90
2023-03-18T02:04:07.418Z,99.90
2023-03-18T02:06:34.640Z,99.90
2023-03-18T02:09:02.908Z,99.90
2023-03-18T02:11:33.225Z,99.90
2023-03-18T02:14:01.343Z,99.90
2023-03-18T02:16:56.582Z,99.90
2023-03-18T02:19:54.369Z,99.90
2023-03-18T02:22:31.988Z,99.90
2023-03-18T02:25:32.826Z,99.90
2023-03-18T02:28:03.807Z,99.90
2023-03-18T02:30:53.445Z,99.90
2023-03-18T02:33:22.957Z,99.90
2023-03-18T02:35:55.560Z,99.90
2023-03-18T02:38:22.954Z,99.90
2023-03-18T02:40:49.842Z,99.90
2023-03-18T02:43:31.207Z,99.90
2023-03-18T02:46:04.781Z,99.90
2023-03-18T02:48:37.744Z,99.90
2023-03-18T02:51:07.281Z,99.90
2023-03-18T02:53:34.497Z,99.90
2023-03-18T02:56:02.098Z,99.90
2023-03-18T02:58:28.965Z,99.90
2023-03-18T03:00:57.510Z,99.90
2023-03-18T03:03:26.551Z,99.90
2023-03-18T03:05:53.679Z,99.90
2023-03-18T03:08:20.620Z,99.90
2023-03-18T03:10:47.620Z,99.90
2023-03-18T03:13:14.302Z,99.90
2023-03-18T03:15:41.462Z,99.90
2023-03-18T03:18:08.804Z,99.90
2023-03-18T03:20:37.522Z,99.90
2023-03-18T03:23:05.475Z,99.90
2023-03-18T03:25:32.544Z,99.90
2023-03-18T03:27:59.230Z,99.90
2023-03-18T03:30:26.320Z,99.90
2023-03-18T03:32:53.139Z,99.90
2023-03-18T03:35:20.678Z,99.90
2023-03-18T03:37:48.140Z,99.90
2023-03-18T03:40:18.054Z,99.90
2023-03-18T03:42:45.612Z,99.90
2023-03-18T03:45:14.647Z,99.90
2023-03-18T03:47:42.984Z,99.90
2023-03-18T03:50:11.407Z,99.90
2023-03-18T03:52:39.047Z,99.90
2023-03-18T03:55:12.328Z,99.90
2023-03-18T03:57:39.888Z,99.90
2023-03-18T04:00:14.397Z,99.90
2023-03-18T04:02:43.411Z,99.90
2023-03-18T04:05:12.494Z,99.90
2023-03-18T04:07:41.043Z,99.90
2023-03-18T04:10:09.739Z,99.90
2023-03-18T04:12:37.268Z,99.90
2023-03-18T04:15:05.327Z,99.90
2023-03-18T04:17:32.395Z,99.90
2023-03-18T04:19:59.390Z,99.90
2023-03-18T04:22:26.170Z,99.90
2023-03-18T04:24:53.031Z,99.90
2023-03-18T04:27:19.859Z,99.90
2023-03-18T04:29:46.744Z,99.90
2023-03-18T04:32:13.745Z,99.90
2023-03-18T04:34:40.599Z,99.90
2023-03-18T04:37:08.764Z,99.90
2023-03-18T04:39:35.507Z,99.90
2023-03-18T04:42:02.318Z,99.90
2023-03-18T04:44:29.066Z,99.90
2023-03-18T04:46:55.855Z,99.90
2023-03-18T04:49:23.357Z,99.90
2023-03-18T04:51:50.077Z,99.90
2023-03-18T04:54:16.867Z,99.90
2023-03-18T04:56:43.788Z,99.90
2023-03-18T04:59:10.650Z,99.90
2023-03-18T05:01:38.335Z,99.90
2023-03-18T05:04:05.288Z,99.90
2023-03-18T05:06:33.598Z,99.90
2023-03-18T05:09:01.071Z,99.90
2023-03-18T05:11:28.454Z,99.90
2023-03-18T05:13:55.226Z,99.90
2023-03-18T05:16:22.013Z,99.90
2023-03-18T05:18:48.888Z,99.90
2023-03-18T05:21:15.791Z,99.90
2023-03-18T05:23:42.936Z,99.90
2023-03-18T05:26:11.783Z,99.90
2023-03-18T05:28:39.302Z,99.90
2023-03-18T05:31:07.405Z,99.90
2023-03-18T05:33:34.450Z,99.90
2023-03-18T05:36:01.200Z,99.90
2023-03-18T05:38:28.072Z,99.90
2023-03-18T05:40:55.413Z,99.90
2023-03-18T05:43:23.217Z,99.90
2023-03-18T05:45:50.217Z,99.90
2023-03-18T05:48:17.662Z,99.90
2023-03-18T05:50:45.150Z,99.90
2023-03-18T05:53:12.126Z,99.90
2023-03-18T05:55:40.312Z,99.90
2023-03-18T05:58:07.380Z,99.90
2023-03-18T06:00:34.424Z,99.90
2023-03-18T06:03:01.928Z,99.90
2023-03-18T06:05:29.818Z,99.90
2023-03-18T06:07:57.367Z,99.90
2023-03-18T06:10:25.328Z,99.90
2023-03-18T06:12:52.761Z,99.90
2023-03-18T06:15:21.219Z,99.90
2023-03-18T06:17:48.625Z,99.90
2023-03-18T06:20:15.988Z,99.90
2023-03-18T06:22:43.826Z,99.90
2023-03-18T06:25:10.947Z,99.90
2023-03-18T06:27:37.723Z,99.90
2023-03-18T06:30:05.516Z,99.90
2023-03-18T06:32:33.859Z,99.90
2023-03-18T06:35:00.914Z,99.90
2023-03-18T06:37:28.230Z,99.90
2023-03-18T06:39:55.340Z,99.90
2023-03-18T06:42:22.016Z,99.90
2023-03-18T06:44:51.272Z,99.90
2023-03-18T06:47:19.369Z,99.90
2023-03-18T06:49:47.025Z,99.90
2023-03-18T06:52:14.284Z,99.90
2023-03-18T06:54:41.487Z,99.90
2023-03-18T06:57:08.830Z,99.90
2023-03-18T06:59:36.301Z,99.90
2023-03-18T07:02:05.173Z,99.90
2023-03-18T07:04:33.929Z,99.90
2023-03-18T07:07:01.042Z,99.90
2023-03-18T07:09:28.360Z,99.90
2023-03-18T07:11:55.244Z,99.90
2023-03-18T07:14:22.368Z,99.90
2023-03-18T07:16:49.142Z,99.90
2023-03-18T07:19:16.426Z,99.90
2023-03-18T07:21:43.792Z,99.90
2023-03-18T07:24:11.349Z,99.90
2023-03-18T07:26:38.442Z,99.90
2023-03-18T07:29:05.463Z,99.90
2023-03-18T07:31:32.192Z,99.90
2023-03-18T07:33:59.157Z,99.90
2023-03-18T07:36:26.751Z,99.90
2023-03-18T07:38:53.768Z,99.90
2023-03-18T07:41:20.560Z,99.90
2023-03-18T07:43:47.365Z,99.90
2023-03-18T07:46:15.332Z,99.90
2023-03-18T07:48:42.127Z,99.90
2023-03-18T07:51:09.020Z,99.90
2023-03-18T07:53:36.177Z,99.90
2023-03-18T07:56:03.998Z,99.90
2023-03-18T07:58:40.203Z,99.90
2023-03-18T08:01:10.986Z,99.90
2023-03-18T08:03:38.687Z,99.90
2023-03-18T08:06:05.626Z,99.90
2023-03-18T08:08:35.775Z,99.90
2023-03-18T08:11:03.122Z,99.90
2023-03-18T08:13:32.816Z,99.90
2023-03-18T08:16:02.318Z,99.90
2023-03-18T08:18:29.079Z,99.90
2023-03-18T08:20:58.724Z,99.90
2023-03-18T08:23:27.844Z,99.90
2023-03-18T08:25:54.809Z,99.90
2023-03-18T08:28:21.614Z,99.90
2023-03-18T08:30:48.875Z,99.90
2023-03-18T08:33:16.047Z,99.90
2023-03-18T08:35:43.294Z,99.90
2023-03-18T08:38:12.441Z,99.90
2023-03-18T08:40:43.380Z,99.90
2023-03-18T08:43:10.649Z,99.90
2023-03-18T08:45:37.749Z,99.90
2023-03-18T08:48:04.792Z,99.90
2023-03-18T08:50:32.059Z,99.90
2023-03-18T08:53:02.946Z,99.90
2023-03-18T08:55:42.189Z,99.90
2023-03-18T08:58:11.573Z,99.90
2023-03-18T09:00:45.647Z,99.90
2023-03-18T09:03:15.791Z,99.90
2023-03-18T09:05:42.779Z,99.90
2023-03-18T09:08:09.552Z,99.90
2023-03-18T09:10:36.417Z,99.90
2023-03-18T09:13:03.479Z,99.60
2023-03-18T09:15:31.726Z,99.20
2023-03-18T09:18:11.133Z,99.50
2023-03-18T09:20:40.234Z,99.10
2023-03-18T09:23:08.029Z,99.60
2023-03-18T09:25:35.314Z,97.60
2023-03-18T09:28:02.255Z,97.30
2023-03-18T09:30:30.154Z,97.60
2023-03-18T09:32:56.951Z,97.10
2023-03-18T09:35:26.918Z,98.30
2023-03-18T09:37:54.094Z,98.10
2023-03-18T09:40:33.537Z,94.80
2023-03-18T09:43:13.292Z,96.70
2023-03-18T09:46:02.578Z,97.10
2023-03-18T09:48:41.902Z,96.00
2023-03-18T09:51:37.733Z,93.20
2023-03-18T09:54:22.853Z,92.10
2023-03-18T09:56:54.341Z,92.70
2023-03-18T09:59:38.498Z,92.20
2023-03-18T10:02:36.493Z,90.00
2023-03-18T10:05:16.202Z,89.30
2023-03-18T10:07:46.174Z,88.40
2023-03-18T10:10:37.254Z,86.80
2023-03-18T10:13:35.489Z,86.40
2023-03-18T10:16:07.465Z,82.70
2023-03-18T10:18:38.276Z,83.00
2023-03-18T10:21:18.094Z,84.20
2023-03-18T10:24:11.900Z,84.40
2023-03-18T10:27:03.120Z,78.90
2023-03-18T10:29:45.212Z,79.20
2023-03-18T10:32:33.273Z,78.50
2023-03-18T10:35:28.627Z,78.80
2023-03-18T10:38:04.717Z,79.10
2023-03-18T10:40:37.115Z,75.60
2023-03-18T10:43:04.359Z,78.10
2023-03-18T10:45:34.526Z,79.30
2023-03-18T10:48:25.445Z,77.90
2023-03-18T10:51:31.594Z,77.40
2023-03-18T10:54:09.496Z,76.00
2023-03-18T10:56:36.739Z,75.30
2023-03-18T10:59:16.095Z,76.80
2023-03-18T11:01:50.789Z,77.90
2023-03-18T11:04:21.636Z,76.50
2023-03-18T11:07:03.536Z,76.10
2023-03-18T11:09:36.475Z,76.90
2023-03-18T11:12:19.083Z,77.10
2023-03-18T11:14:50.303Z,75.40
2023-03-18T11:17:28.070Z,76.20
2023-03-18T11:20:25.186Z,76.60
2023-03-18T11:22:55.502Z,72.30
2023-03-18T11:25:29.098Z,73.60
2023-03-18T11:28:11.859Z,74.10
2023-03-18T11:30:48.683Z,74.20
2023-03-18T11:33:17.606Z,74.70
2023-03-18T11:35:44.259Z,73.30
2023-03-18T11:38:28.922Z,72.00
2023-03-18T11:41:28.334Z,70.20
2023-03-18T11:44:05.706Z,69.80
2023-03-18T11:46:53.634Z,72.10
2023-03-18T11:49:23.686Z,71.50
2023-03-18T11:51:54.767Z,71.40
2023-03-18T11:54:40.347Z,70.80
2023-03-18T11:57:42.739Z,68.30
2023-03-18T12:00:19.351Z,68.10
2023-03-18T12:03:11.028Z,68.70
2023-03-18T12:06:03.925Z,69.90
2023-03-18T12:09:07.610Z,69.70
2023-03-18T12:12:08.971Z,69.20
2023-03-18T12:14:45.748Z,68.30
2023-03-18T12:17:30.252Z,65.80
2023-03-18T12:20:25.763Z,70.30
2023-03-18T12:23:30.259Z,68.70
2023-03-18T12:26:17.096Z,65.60
2023-03-18T12:29:12.514Z,67.40
2023-03-18T12:31:52.312Z,67.00
2023-03-18T12:34:51.579Z,65.40
2023-03-18T12:37:36.462Z,66.60
2023-03-18T12:40:43.248Z,67.80
2023-03-18T12:43:37.540Z,66.00
2023-03-18T12:46:51.527Z,65.70
2023-03-18T12:49:54.727Z,66.50
2023-03-18T12:52:58.852Z,64.70
2023-03-18T12:55:36.852Z,64.50
2023-03-18T12:58:37.966Z,65.10
2023-03-18T13:01:34.051Z,62.60
2023-03-18T13:04:20.008Z,63.90
2023-03-18T13:06:56.432Z,63.80
2023-03-18T13:09:44.582Z,67.10
2023-03-18T13:12:22.265Z,63.30
2023-03-18T13:15:24.597Z,63.40
2023-03-18T13:17:57.263Z,62.40
2023-03-18T13:21:12.059Z,63.40
2023-03-18T13:24:23.090Z,63.20
2023-03-18T13:27:32.271Z,62.70
2023-03-18T13:30:22.434Z,64.90
2023-03-18T13:33:14.039Z,63.70
2023-03-18T13:36:19.731Z,61.30
2023-03-18T13:39:13.262Z,64.00
2023-03-18T13:42:07.094Z,64.10
2023-03-18T13:45:05.249Z,62.90
2023-03-18T13:47:35.148Z,63.70
2023-03-18T13:50:06.036Z,63.20
2023-03-18T13:52:48.922Z,62.90
2023-03-18T13:55:28.842Z,64.30
2023-03-18T13:58:05.405Z,62.70
2023-03-18T14:00:42.641Z,63.70
2023-03-18T14:03:43.814Z,63.80
2023-03-18T14:06:11.004Z,63.40
2023-03-18T14:09:00.913Z,63.50
2023-03-18T14:11:45.378Z,62.30
2023-03-18T14:14:51.469Z,63.70
2023-03-18T14:17:42.237Z,63.50
2023-03-18T14:20:15.095Z,64.00
2023-03-18T14:22:43.574Z,62.40
2023-03-18T14:29:13.326Z,64.70
2023-03-18T14:31:40.150Z,63.40
2023-03-18T14:34:25.653Z,65.60
2023-03-18T14:36:59.292Z,64.20
2023-03-18T14:39:34.020Z,65.00
2023-03-18T14:42:15.346Z,66.30
2023-03-18T14:44:54.656Z,65.80
2023-03-18T14:48:17.231Z,67.90
2023-03-18T14:50:51.072Z,66.30
2023-03-18T14:54:06.712Z,65.40
2023-03-18T15:00:14.095Z,65.30
2023-03-18T15:02:41.167Z,63.80
2023-03-18T15:05:10.620Z,64.30
2023-03-18T15:07:41.355Z,65.80
2023-03-18T15:10:17.128Z,65.20
2023-03-18T15:12:44.220Z,65.30
2023-03-18T15:15:15.456Z,63.80
2023-03-18T15:17:47.653Z,64.60
2023-03-18T15:20:14.490Z,64.90
2023-03-18T15:22:43.376Z,63.60
2023-03-18T15:25:20.529Z,63.80
2023-03-18T15:27:48.346Z,66.00
2023-03-18T15:30:30.251Z,62.20
2023-03-18T15:33:24.571Z,63.20
2023-03-18T15:35:56.603Z,64.30
2023-03-18T15:38:29.084Z,65.30
2023-03-18T15:41:01.479Z,63.50
2023-03-18T15:43:46.538Z,64.40
2023-03-18T15:46:32.605Z,64.40
2023-03-18T15:49:04.535Z,62.60
2023-03-18T15:51:45.034Z,62.30
2023-03-18T15:54:24.808Z,62.60
2023-03-18T15:56:55.089Z,62.20
2023-03-18T15:59:28.647Z,62.20
2023-03-18T16:01:56.828Z,64.40
2023-03-18T16:04:25.413Z,65.50
2023-03-18T16:06:55.256Z,64.80
2023-03-18T16:09:24.348Z,67.00
2023-03-18T16:11:57.587Z,65.40
2023-03-18T16:14:33.555Z,65.10
2023-03-18T16:17:00.295Z,65.30
2023-03-18T16:19:28.579Z,65.00
2023-03-18T16:21:57.357Z,64.90
2023-03-18T16:24:25.334Z,66.40
2023-03-18T16:26:53.703Z,67.00
2023-03-18T16:29:29.752Z,67.20
2023-03-18T16:31:57.020Z,68.70
2023-03-18T16:34:24.307Z,67.10
2023-03-18T16:36:53.477Z,67.80
2023-03-18T16:39:24.429Z,70.30
2023-03-18T16:41:52.266Z,68.50
2023-03-18T16:44:21.396Z,69.10
2023-03-18T16:46:55.144Z,71.00
2023-03-18T16:49:25.571Z,72.80
2023-03-18T16:51:52.324Z,73.20
2023-03-18T16:54:27.257Z,73.80
2023-03-18T16:57:02.980Z,74.40
2023-03-18T16:59:34.301Z,74.90
2023-03-18T17:02:03.986Z,75.60
2023-03-18T17:04:35.261Z,75.80
2023-03-18T17:07:04.505Z,76.10
2023-03-18T17:09:32.120Z,76.90
2023-03-18T17:12:05.237Z,77.30
2023-03-18T17:14:39.687Z,77.60
2023-03-18T17:17:33.232Z,78.80
2023-03-18T17:19:59.934Z,78.20
2023-03-18T17:22:32.609Z,78.50
2023-03-18T17:25:01.379Z,79.40
2023-03-18T17:27:33.924Z,80.30
2023-03-18T17:30:00.907Z,80.60
2023-03-18T17:32:27.572Z,80.60
2023-03-18T17:34:54.815Z,81.10
2023-03-18T17:37:23.585Z,81.70
2023-03-18T17:39:50.581Z,82.30
2023-03-18T17:42:33.161Z,82.70
2023-03-18T17:45:06.904Z,83.00
2023-03-18T17:47:34.972Z,83.80
2023-03-18T17:50:01.693Z,84.70
2023-03-18T17:52:28.428Z,85.10
2023-03-18T17:54:55.682Z,85.60
2023-03-18T17:57:22.378Z,86.40
2023-03-18T17:59:49.058Z,87.10
2023-03-18T18:02:21.128Z,87.70
2023-03-18T18:04:47.893Z,88.50
2023-03-18T18:07:19.538Z,88.60
2023-03-18T18:09:46.968Z,89.00
2023-03-18T18:12:19.798Z,89.50
2023-03-18T18:14:46.760Z,90.00
2023-03-18T18:17:15.532Z,90.10
2023-03-18T18:19:43.311Z,90.20
2023-03-18T18:22:30.234Z,90.40
2023-03-18T18:24:57.893Z,90.70
2023-03-18T18:27:24.659Z,91.00
2023-03-18T18:29:51.853Z,91.20
2023-03-18T18:32:18.975Z,91.30
2023-03-18T18:34:46.709Z,91.70
2023-03-18T18:37:13.621Z,92.10
2023-03-18T18:39:41.137Z,92.20
2023-03-18T18:42:08.171Z,92.20
2023-03-18T18:44:35.707Z,92.40
2023-03-18T18:47:02.579Z,92.50
2023-03-18T18:49:29.414Z,92.70
2023-03-18T18:51:56.509Z,92.90
2023-03-18T18:54:24.574Z,93.20
2023-03-18T18:56:52.351Z,93.50
2023-03-18T18:59:32.209Z,93.60
2023-03-18T19:02:00.671Z,94.20
2023-03-18T19:04:27.448Z,94.20
2023-03-18T19:06:54.618Z,94.30
2023-03-18T19:09:24.631Z,94.30
2023-03-18T19:11:52.279Z,94.60
2023-03-18T19:14:24.741Z,94.90
2023-03-18T19:16:52.345Z,95.20
2023-03-18T19:19:22.096Z,95.60
2023-03-18T19:21:50.910Z,96.20
2023-03-18T19:24:32.617Z,96.10
2023-03-18T19:27:02.049Z,96.20
2023-03-18T19:29:29.306Z,96.30
2023-03-18T19:31:56.204Z,96.60
2023-03-18T19:34:23.686Z,97.20
2023-03-18T19:36:54.985Z,97.30
2023-03-18T19:39:22.671Z,97.50
2023-03-18T19:41:51.084Z,97.60
2023-03-18T19:44:24.147Z,97.90
2023-03-18T19:46:54.498Z,98.00
2023-03-18T19:49:28.518Z,98.30
2023-03-18T19:51:56.135Z,98.50
2023-03-18T19:54:29.370Z,98.60
2023-03-18T19:57:00.307Z,98.70
2023-03-18T19:59:37.960Z,98.80
2023-03-18T20:02:18.284Z,98.90
2023-03-18T20:04:45.028Z,99.30
2023-03-18T20:07:11.702Z,99.90
2023-03-18T20:09:39.423Z,99.90
2023-03-18T20:12:07.097Z,99.90
2023-03-18T20:14:39.124Z,99.90
2023-03-18T20:17:41.843Z,99.90
2023-03-18T20:20:19.634Z,99.90
2023-03-18T20:22:52.426Z,99.90
2023-03-18T20:25:23.838Z,99.90
2023-03-18T20:27:53.510Z,99.90
2023-03-18T20:30:27.805Z,99.90
2023-03-18T20:32:55.066Z,99.90
2023-03-18T20:35:23.837Z,99.90
2023-03-18T20:37:50.733Z,99.90
2023-03-18T20:40:24.169Z,99.90
2023-03-18T20:42:52.612Z,99.90
2023-03-18T20:45:21.105Z,99.90
2023-03-18T20:47:48.618Z,99.90
2023-03-18T20:50:21.203Z,99.90
2023-03-18T20:52:48.368Z,99.90
2023-03-18T20:55:26.492Z,99.90
2023-03-18T20:57:54.290Z,99.90
2023-03-18T21:00:24.511Z,99.90
2023-03-18T21:02:54.035Z,99.90
2023-03-18T21:05:21.753Z,99.90
2023-03-18T21:07:49.017Z,99.90
2023-03-18T21:10:17.440Z,99.90
2023-03-18T21:12:44.937Z,99.90
2023-03-18T21:15:23.552Z,99.90
2023-03-18T21:17:50.653Z,99.90
2023-03-18T21:20:26.457Z,99.90
2023-03-18T21:22:54.509Z,99.90
2023-03-18T21:25:24.392Z,99.90
2023-03-18T21:27:51.637Z,99.90
2023-03-18T21:30:21.982Z,99.90
2023-03-18T21:32:50.633Z,99.90
2023-03-18T21:35:23.385Z,99.90
2023-03-18T21:37:50.841Z,99.90
2023-03-18T21:40:20.815Z,99.90
2023-03-18T21:42:51.904Z,99.90
2023-03-18T21:45:23.621Z,99.90
2023-03-18T21:47:52.394Z,99.90
2023-03-18T21:50:26.587Z,99.90
2023-03-18T21:52:54.229Z,99.90
2023-03-18T21:55:21.735Z,99.90
2023-03-18T21:57:49.421Z,99.90
2023-03-18T22:00:20.216Z,99.90
2023-03-18T22:02:47.662Z,99.90
2023-03-18T22:05:17.632Z,99.90
2023-03-18T22:07:44.436Z,99.90
2023-03-18T22:10:15.956Z,99.90
2023-03-18T22:12:42.746Z,99.90
2023-03-18T22:15:39.321Z,99.90
2023-03-18T22:18:07.392Z,99.90
2023-03-18T22:20:36.459Z,99.90
2023-03-18T22:23:19.090Z,99.90
2023-03-18T22:25:48.740Z,99.90
2023-03-18T22:28:16.165Z,99.90
2023-03-18T22:30:46.092Z,99.90
2023-03-18T22:33:26.584Z,99.90
2023-03-18T22:35:53.557Z,99.90
2023-03-18T22:38:22.276Z,99.90
2023-03-18T22:40:52.801Z,99.90
2023-03-18T22:43:31.554Z,99.90
2023-03-18T22:46:00.466Z,99.90
2023-03-18T22:48:27.896Z,99.90
2023-03-18T22:50:55.997Z,99.90
2023-03-18T22:53:31.018Z,99.90
2023-03-18T22:56:01.344Z,99.90
2023-03-18T22:58:28.418Z,99.90
2023-03-18T23:00:56.093Z,99.90
2023-03-18T23:03:29.154Z,99.90
2023-03-18T23:05:57.364Z,99.90
2023-03-18T23:08:24.479Z,99.90
2023-03-18T23:10:53.124Z,99.90
2023-03-18T23:13:36.719Z,99.90
2023-03-18T23:16:09.062Z,99.90
2023-03-18T23:18:37.482Z,99.90
2023-03-18T23:21:04.284Z,99.90
2023-03-18T23:23:31.528Z,99.90
2023-03-18T23:25:58.342Z,99.90
2023-03-18T23:28:25.074Z,99.90
2023-03-18T23:30:53.003Z,99.90
2023-03-18T23:33:20.074Z,99.90
2023-03-18T23:35:48.214Z,99.90
2023-03-18T23:38:15.482Z,99.90
2023-03-18T23:40:42.331Z,99.90
2023-03-18T23:43:09.216Z,99.90
2023-03-18T23:45:38.144Z,99.90
2023-03-18T23:48:06.118Z,99.90
2023-03-18T23:50:32.905Z,99.90
2023-03-18T23:53:00.490Z,99.90
2023-03-18T23:55:34.566Z,99.90
2023-03-18T23:58:02.914Z,99.90
